Latest Weather Observations for Rutherglen

IDV60801

Issued at 10:32 pm EST Tuesday 25 April 2017 (issued every 30 minutes, with the page automatically refreshed every 10 minutes)

About weather observations | Map of weather stations | Latest weather observations for VIC | Other Formats
Station Details ID: 082039 Name: RUTHERGLEN RESEARCH Lat: -36.10 Lon: 146.51 Height: 175.0 m
Data from the previous 72 hours. | See also: Recent months at Rutherglen
Date/Time
EST
Temp
°C
App
Temp
°C
Dew
Point
°C
Rel
Hum
%
Delta-T
°C
Wind Press
QNH
hPa
Press
MSL
hPa
Rain since
9am
mm
Dir  Spd
km/h
Gust
km/h
Spd
kts
Gust
kts
25/10:30pm 14.3 14.3 14.3 100 0.0 NW 7 9 4 5 - - 7.8
25/10:00pm 13.8 13.9 13.8 100 0.0 NNW 6 9 3 5 - - 7.8
25/09:30pm 13.2 13.1 13.2 100 0.0 NNW 6 7 3 4 - - 7.8
25/09:00pm 13.6 13.5 13.3 98 0.2 WNW 6 7 3 4 - - 7.8
25/08:30pm 15.2 14.9 14.4 95 0.5 WNW 9 13 5 7 - - 7.8
25/08:00pm 15.6 15.7 14.5 93 0.6 WNW 7 11 4 6 - - 7.8
25/07:30pm 15.9 15.6 14.4 91 0.9 WNW 9 15 5 8 - - 7.8
25/07:00pm 16.3 15.1 14.1 87 1.3 WNW 13 17 7 9 - - 7.4
25/06:30pm 16.7 15.4 13.8 83 1.7 WNW 13 17 7 9 - - 7.4
25/06:00pm 16.8 15.6 13.9 83 1.7 W 13 17 7 9 - - 7.4
25/05:30pm 17.4 15.3 13.7 79 2.1 W 17 20 9 11 - - 7.4
25/05:00pm 19.0 17.0 14.9 77 2.4 W 19 26 10 14 - - 7.4
25/04:30pm 18.8 17.5 15.7 82 1.8 W 17 22 9 12 - - 7.4
25/04:00pm 19.5 17.1 15.4 77 2.4 WNW 22 33 12 18 - - 7.4
25/03:30pm 19.0 17.1 15.3 79 2.2 WNW 19 28 10 15 - - 7.4
25/03:00pm 19.2 19.3 16.6 85 1.6 SW 11 17 6 9 - - 7.4
25/02:30pm 20.2 20.2 18.0 87 1.4 NW 15 22 8 12 - - 7.4
25/02:00pm 19.3 18.7 17.6 90 1.0 NW 17 24 9 13 - - 7.4
25/01:30pm 18.3 18.1 17.7 96 0.4 W 15 20 8 11 - - 7.4
25/01:00pm 17.6 17.4 17.6 100 0.0 W 15 19 8 10 - - 7.4
25/12:30pm 16.9 17.2 16.9 100 0.0 WNW 11 17 6 9 - - 7.4
25/12:00pm 16.6 16.4 16.6 100 0.0 W 13 19 7 10 - - 7.4
25/11:30am 16.7 17.3 16.7 100 0.0 NW 9 13 5 7 - - 7.2
25/11:00am 16.6 17.7 16.6 100 0.0 NNW 6 9 3 5 - - 7.2
25/10:30am 16.4 17.2 16.4 100 0.0 N 7 9 4 5 - - 5.4
25/10:00am 16.3 17.3 16.3 100 0.0 N 6 7 3 4 - - 3.8
25/09:30am 16.3 17.3 16.3 100 0.0 N 6 7 3 4 - - 2.4
25/09:00am 16.2 16.9 16.2 100 0.0 NNE 7 9 4 5 - - 17.6
25/08:30am 16.2 17.1 16.2 100 0.0 NNE 6 9 3 5 - - 15.0
25/08:00am 16.1 16.8 16.1 100 0.0 NE 7 9 4 5 - - 13.6
25/07:30am 16.1 17.0 16.1 100 0.0 NNE 6 9 3 5 - - 12.6
25/07:00am 16.0 16.9 16.0 100 0.0 N 6 9 3 5 - - 11.8
25/06:30am 16.1 16.8 16.1 100 0.0 NNE 7 9 4 5 - - 11.0
25/06:00am 16.1 16.8 16.1 100 0.0 N 7 11 4 6 - - 10.2
25/05:30am 16.1 16.8 16.1 100 0.0 NNW 7 11 4 6 - - 9.6
25/05:00am 16.3 16.7 16.3 100 0.0 NNW 9 15 5 8 - - 7.8
25/04:30am 17.1 18.2 16.6 97 0.3 NNW 6 9 3 5 - - 2.2
25/04:00am 17.2 17.6 16.2 94 0.6 NE 9 15 5 8 - - 2.0
25/03:30am 17.0 17.5 16.5 97 0.3 NE 9 13 5 7 - - 2.0
25/03:00am 16.5 17.4 16.5 100 0.0 NE 7 11 4 6 - - 2.0
25/02:30am 15.9 16.5 15.9 100 0.0 E 7 11 4 6 - - 2.0
25/02:00am 16.3 17.3 16.3 100 0.0 ENE 6 9 3 5 - - 1.8
25/01:30am 17.2 17.6 15.4 89 1.1 NE 7 11 4 6 - - 0.8
25/01:00am 18.3 18.2 14.0 76 2.5 NE 7 11 4 6 - - 0.0
25/12:30am 18.3 18.4 14.0 76 2.5 NE 6 9 3 5 - - 0.0
25/12:00am 18.4 17.9 13.7 74 2.7 NE 9 13 5 7 - - 0.0
 
Date/Time
EST
Temp
°C
App
Temp
°C
Dew
Point
°C
Rel
Hum
%
Delta-T
°C
Wind Press
QNH
hPa
Press
MSL
hPa
Rain since
9am
mm
Dir  Spd
km/h
Gust
km/h
Spd
kts
Gust
kts
24/11:30pm 18.5 17.9 13.6 73 2.8 NE 9 13 5 7 - - 0.0
24/11:00pm 18.1 17.7 14.0 77 2.4 NE 9 13 5 7 - - 0.0
24/10:30pm 17.9 17.8 13.8 77 2.4 ENE 7 11 4 6 - - 0.0
24/10:00pm 18.3 18.2 14.0 76 2.5 ENE 7 11 4 6 - - 0.0
24/09:30pm 18.7 18.0 14.4 76 2.5 ENE 11 19 6 10 - - 0.0
24/09:00pm 18.2 17.6 14.5 79 2.2 ENE 11 13 6 7 - - 0.0
24/08:30pm 16.9 16.5 14.0 83 1.7 E 9 13 5 7 - - 0.0
24/08:00pm 17.2 16.9 14.3 83 1.7 E 9 11 5 6 - - 0.0
24/07:30pm 18.3 17.7 14.6 79 2.2 E 11 17 6 9 - - 0.0
24/07:00pm 18.0 17.9 14.9 82 1.8 E 9 11 5 6 - - 0.0
24/06:30pm 17.6 17.4 14.7 83 1.7 E 9 11 5 6 - - 0.0
24/06:00pm 18.1 18.2 14.4 79 2.1 E 7 11 4 6 - - 0.0
24/05:30pm 19.7 19.6 13.9 69 3.4 E 7 7 4 4 - - 0.0
24/05:00pm 21.5 20.6 13.7 61 4.5 E 11 15 6 8 - - 0.0
24/04:30pm 22.0 20.7 13.6 59 4.9 E 13 17 7 9 - - 0.0
24/04:00pm 22.8 22.1 14.4 59 5.0 E 11 15 6 8 - - 0.0
24/03:30pm 23.0 22.0 13.5 55 5.6 ENE 11 17 6 9 - - 0.0
24/03:00pm 23.3 23.1 14.6 58 5.2 ENE 9 15 5 8 - - 0.0
24/02:30pm 23.2 22.5 14.2 57 5.3 ENE 11 15 6 8 - - 0.0
24/02:00pm 23.0 22.6 14.0 57 5.3 NE 9 15 5 8 - - 0.0
24/01:30pm 23.2 22.8 14.2 57 5.3 ENE 9 13 5 7 - - 0.0
24/01:00pm 23.5 22.6 13.7 54 5.8 NE 11 17 6 9 - - 0.0
24/12:30pm 23.3 22.4 14.8 59 5.1 ENE 13 19 7 10 - - 0.0
24/12:00pm 22.5 21.8 14.4 60 4.8 E 11 15 6 8 - - 0.0
24/11:30am 22.1 21.5 14.5 62 4.5 NNE 11 17 6 9 - - 0.0
24/11:00am 21.4 20.9 15.0 67 3.8 NE 11 19 6 10 - - 0.0
24/10:30am 20.9 19.8 14.3 66 3.9 ENE 13 17 7 9 - - 0.0
24/10:00am 19.8 19.1 15.4 76 2.6 ENE 13 17 7 9 - - 0.0
24/09:30am 18.0 19.1 18.0 100 0.0 ENE 9 13 5 7 - - 0.0
24/09:00am 15.1 16.4 15.1 100 0.0 NE 2 9 1 5 - - 0.2
24/08:30am 13.0 13.9 13.0 100 0.0 CALM 0 0 0 0 - - 0.2
24/08:00am 11.8 12.4 11.8 100 0.0 CALM 0 0 0 0 - - 0.2
24/07:30am 9.3 9.2 9.3 100 0.0 CALM 0 0 0 0 - - 0.2
24/07:00am 8.8 8.5 8.8 100 0.0 CALM 0 0 0 0 - - 0.2
24/06:30am 8.7 8.4 8.7 100 0.0 CALM 0 0 0 0 - - 0.2
24/06:00am 8.5 7.0 8.5 100 0.0 E 6 7 3 4 - - 0.2
24/05:30am 8.5 6.8 8.5 100 0.0 E 7 7 4 4 - - 0.2
24/05:00am 9.3 9.2 9.3 100 0.0 CALM 0 0 0 0 - - 0.2
24/04:30am 9.6 9.5 9.6 100 0.0 CALM 0 0 0 0 - - 0.2
24/04:00am 10.2 9.5 10.2 100 0.0 E 4 7 2 4 - - 0.2
24/03:30am 10.1 9.0 10.1 100 0.0 SSW 6 7 3 4 - - 0.2
24/03:00am 9.4 8.5 9.4 100 0.0 SSW 4 6 2 3 - - 0.2
24/02:30am 9.6 9.5 9.6 100 0.0 CALM 0 0 0 0 - - 0.2
24/02:00am 9.9 9.9 9.9 100 0.0 CALM 0 0 0 0 - - 0.2
24/01:30am 8.9 7.9 8.9 100 0.0 E 4 6 2 3 - - 0.2
24/01:00am 10.0 10.1 10.0 100 0.0 CALM 0 0 0 0 - - 0.2
24/12:30am 10.4 10.6 10.4 100 0.0 CALM 0 0 0 0 - - 0.2
24/12:00am 11.0 11.3 11.0 100 0.0 CALM 0 0 0 0 - - 0.2
 
Date/Time
EST
Temp
°C
App
Temp
°C
Dew
Point
°C
Rel
Hum
%
Delta-T
°C
Wind Press
QNH
hPa
Press
MSL
hPa
Rain since
9am
mm
Dir  Spd
km/h
Gust
km/h
Spd
kts
Gust
kts
23/11:30pm 11.5 12.0 11.5 100 0.0 CALM 0 0 0 0 - - 0.2
23/11:00pm 12.5 13.3 12.5 100 0.0 CALM 0 0 0 0 - - 0.2
23/10:30pm 11.8 12.4 11.8 100 0.0 CALM 0 0 0 0 - - 0.2
23/10:00pm 12.4 12.0 12.4 100 0.0 SE 6 7 3 4 - - 0.2
23/09:30pm 12.5 12.1 12.5 100 0.0 SSE 6 7 3 4 - - 0.2
23/09:00pm 12.9 13.8 12.9 100 0.0 CALM 0 0 0 0 - - 0.2
23/08:30pm 13.0 13.9 13.0 100 0.0 CALM 0 0 0 0 - - 0.2
23/08:00pm 14.1 15.4 14.1 100 0.0 CALM 0 0 0 0 - - 0.2
23/07:30pm 15.2 16.9 15.2 100 0.0 CALM 0 0 0 0 - - 0.2
23/07:00pm 15.7 17.6 15.7 100 0.0 CALM 0 0 0 0 - - 0.2
23/06:30pm 16.6 18.4 15.5 93 0.6 CALM 0 0 0 0 - - 0.2
23/06:00pm 17.7 19.3 15.0 84 1.6 CALM 0 0 0 0 - - 0.2
23/05:30pm 19.2 19.7 15.1 77 2.4 WSW 6 7 3 4 - - 0.2
23/05:00pm 20.7 21.0 15.0 70 3.4 WSW 7 9 4 5 - - 0.2
23/04:30pm 20.9 21.2 15.0 69 3.5 SSW 7 11 4 6 - - 0.2
23/04:00pm 21.6 21.5 15.0 66 3.9 SW 9 13 5 7 - - 0.2
23/03:30pm 22.4 21.8 14.5 61 4.7 SW 11 19 6 10 - - 0.2
23/03:00pm 23.0 22.7 13.2 54 5.7 NNW 7 13 4 7 - - 0.2
23/02:30pm 23.2 22.6 13.4 54 5.7 SSW 9 13 5 7 - - 0.2
23/02:00pm 24.2 25.4 13.7 52 6.2 CALM 0 6 0 3 - - 0.2
23/01:30pm 23.0 23.9 15.1 61 4.7 NW 4 7 2 4 - - 0.2
23/01:00pm 23.7 24.3 15.2 59 5.1 N 6 11 3 6 - - 0.2
23/12:30pm 22.7 23.1 14.8 61 4.7 ENE 6 9 3 5 - - 0.2
23/12:00pm 22.0 22.3 14.4 62 4.5 E 6 9 3 5 - - 0.0
23/11:30am 21.1 21.4 15.0 68 3.6 SSW 7 11 4 6 - - 0.0
23/11:00am 21.0 21.9 16.0 73 3.0 S 6 11 3 6 - - 0.0
23/10:30am 20.1 20.7 15.7 76 2.6 NNW 7 9 4 5 - - 0.0
23/10:00am 19.8 20.8 16.3 80 2.1 S 6 7 3 4 - - 0.0
23/09:30am 17.3 18.5 15.8 91 0.9 WNW 4 6 2 3 - - 0.0
23/09:00am 16.0 17.6 16.0 100 0.0 ESE 2 7 1 4 - - 0.0
23/08:30am 15.2 16.5 15.2 100 0.0 ENE 2 7 1 4 - - 0.0
23/08:00am 12.5 13.3 12.5 100 0.0 CALM 0 0 0 0 - - 0.0
23/07:30am 11.8 12.4 11.8 100 0.0 CALM 0 0 0 0 - - 0.0
23/07:00am 10.6 10.8 10.6 100 0.0 CALM 0 0 0 0 - - 0.0
23/06:30am 10.2 10.3 10.2 100 0.0 CALM 0 0 0 0 - - 0.0
23/06:00am 9.2 9.0 9.2 100 0.0 CALM 0 0 0 0 - - 0.0
23/05:30am 9.0 8.8 9.0 100 0.0 CALM 0 0 0 0 - - 0.0
23/05:00am 9.3 9.2 9.3 100 0.0 CALM 0 0 0 0 - - 0.0
23/04:30am 9.8 9.8 9.8 100 0.0 CALM 0 0 0 0 - - 0.0
23/04:00am 10.4 10.6 10.4 100 0.0 CALM 0 0 0 0 - - 0.0
23/03:30am 10.4 10.6 10.4 100 0.0 CALM 0 0 0 0 - - 0.0
23/03:00am 10.8 11.1 10.8 100 0.0 CALM 0 0 0 0 - - 0.0
23/02:30am 11.2 11.6 11.2 100 0.0 CALM 0 0 0 0 - - 0.0
23/02:00am 11.5 12.0 11.5 100 0.0 CALM 0 0 0 0 - - 0.0
23/01:30am 11.1 10.7 11.1 100 0.0 SSW 4 7 2 4 - - 0.0
23/01:00am 11.9 12.5 11.9 100 0.0 CALM 0 0 0 0 - - 0.0
23/12:30am 11.3 11.7 11.3 100 0.0 CALM 0 0 0 0 - - 0.0
23/12:00am 11.4 11.8 11.4 100 0.0 CALM 0 0 0 0 - - 0.0
 
Date/Time
EST
Temp
°C
App
Temp
°C
Dew
Point
°C
Rel
Hum
%
Delta-T
°C
Wind Press
QNH
hPa
Press
MSL
hPa
Rain since
9am
mm
Dir  Spd
km/h
Gust
km/h
Spd
kts
Gust
kts
22/11:30pm 11.6 12.1 11.6 100 0.0 CALM 0 0 0 0 - - 0.0
22/11:00pm 12.3 13.0 12.3 100 0.0 CALM 0 0 0 0 - - 0.0

Other Formats:

Comma delimited format used in spreadsheet applications
http://www.bom.gov.au/fwo/IDV60801/IDV60801.95837.axf

JavaScript Object Notation format (JSON) in row-major order
http://www.bom.gov.au/fwo/IDV60801/IDV60801.95837.json